Time;durP1;ratioP1;P1;durP2;ratioP2;P2;SDS_P1;SDS_P2;PMS_P1;PMS_P2;Temp;Humidity;BMP_temperature;BMP_pressure;BME280_temperature;BME280_humidity;BME280_pressure;Samples;Min_cycle;Max_cycle;Signal;HPM_P1;HPM_P2
2021/03/02 00:00:19;;;;;;;40.33;20.38;;;;;;;0.58;100.00;102701.09;4949894;28;20051;-59
2021/03/02 00:02:46;;;;;;;37.28;18.52;;;;;;;0.23;100.00;102696.00;4951380;28;20055;-58
2021/03/02 00:05:13;;;;;;;39.60;19.52;;;;;;;-0.14;100.00;102696.47;4949879;28;20074;-58
2021/03/02 00:07:40;;;;;;;38.50;19.95;;;;;;;0.04;100.00;102688.94;4950969;28;20053;-55
2021/03/02 00:10:12;;;;;;;42.28;19.35;;;;;;;-0.20;100.00;102695.81;4950024;28;20055;-54
2021/03/02 00:12:41;;;;;;;43.30;21.02;;;;;;;-0.33;100.00;102691.16;4951022;28;20058;-59
2021/03/02 00:15:11;;;;;;;36.10;17.45;;;;;;;-0.02;100.00;102696.78;4950087;28;20047;-57
2021/03/02 00:17:44;;;;;;;35.58;17.83;;;;;;;0.22;100.00;102696.72;4950524;28;20083;-54
2021/03/02 00:20:14;;;;;;;39.20;17.25;;;;;;;0.17;100.00;102691.97;4953128;28;20107;-58
2021/03/02 00:22:56;;;;;;;39.97;18.23;;;;;;;-0.16;100.00;102687.84;4950732;28;20051;-57
2021/03/02 00:25:27;;;;;;;42.03;19.00;;;;;;;-0.48;100.00;102682.06;4953303;28;20101;-59
2021/03/02 00:27:55;;;;;;;38.75;17.65;;;;;;;-0.61;100.00;102684.97;4950982;28;20042;-59
2021/03/02 00:30:23;;;;;;;36.55;17.63;;;;;;;-0.59;100.00;102682.63;4948312;28;20500;-56
2021/03/02 00:32:53;;;;;;;41.15;18.60;;;;;;;-0.39;100.00;102684.63;4950845;28;20107;-60
2021/03/02 00:35:20;;;;;;;36.63;17.35;;;;;;;-0.10;100.00;102680.03;4949099;28;20065;-58
2021/03/02 00:37:48;;;;;;;41.85;18.65;;;;;;;0.15;100.00;102683.38;4950735;28;20070;-59
2021/03/02 00:40:16;;;;;;;32.20;17.73;;;;;;;0.17;100.00;102686.91;4949555;28;20512;-56
2021/03/02 00:42:51;;;;;;;35.60;17.13;;;;;;;0.21;100.00;102694.94;4950952;28;20043;-56
2021/03/02 00:45:21;;;;;;;35.60;17.52;;;;;;;0.06;100.00;102687.50;4949208;28;20039;-58
2021/03/02 00:47:50;;;;;;;34.70;16.95;;;;;;;-0.28;100.00;102686.59;4950538;28;20575;-54
2021/03/02 00:50:17;;;;;;;36.47;17.40;;;;;;;-0.22;100.00;102683.84;4949379;28;20051;-57
2021/03/02 00:52:44;;;;;;;36.63;17.63;;;;;;;0.14;100.00;102695.09;4950738;28;20055;-58
2021/03/02 00:55:11;;;;;;;35.42;17.98;;;;;;;-0.31;100.00;102684.69;4953016;28;20173;-55
2021/03/02 00:57:38;;;;;;;37.95;17.83;;;;;;;-0.79;100.00;102690.63;4950304;28;20419;-59
2021/03/02 01:00:07;;;;;;;37.03;18.25;;;;;;;-0.98;100.00;102689.44;4949485;28;20436;-56
2021/03/02 01:02:33;;;;;;;37.35;17.65;;;;;;;-0.99;100.00;102685.16;4948936;28;20079;-59
2021/03/02 01:05:00;;;;;;;40.25;18.35;;;;;;;-0.97;100.00;102684.59;4949884;28;20670;-53
2021/03/02 01:07:27;;;;;;;37.22;18.48;;;;;;;-0.81;100.00;102692.97;4948696;28;20555;-58
2021/03/02 01:09:54;;;;;;;33.25;17.45;;;;;;;-0.86;100.00;102693.25;4950283;28;20051;-59
2021/03/02 01:12:26;;;;;;;36.05;17.85;;;;;;;-1.06;100.00;102682.00;4948349;28;20039;-59
2021/03/02 01:14:54;;;;;;;39.40;19.60;;;;;;;-1.20;100.00;102673.75;4950528;28;20133;-59
2021/03/02 01:17:20;;;;;;;35.10;18.13;;;;;;;-0.73;100.00;102675.28;4948508;28;20050;-57
2021/03/02 01:19:48;;;;;;;38.15;18.20;;;;;;;-0.89;100.00;102680.34;4950067;28;20924;-53
2021/03/02 01:22:14;;;;;;;37.35;18.15;;;;;;;-0.97;100.00;102678.66;4948533;28;20110;-59
2021/03/02 01:24:41;;;;;;;44.15;19.25;;;;;;;-0.46;100.00;102680.63;4949585;28;20043;-58
2021/03/02 01:27:08;;;;;;;39.38;18.67;;;;;;;-0.55;100.00;102673.03;4948635;28;20475;-56
2021/03/02 01:29:34;;;;;;;34.50;17.08;;;;;;;-0.49;100.00;102680.31;4948521;28;20047;-57
2021/03/02 01:32:01;;;;;;;36.10;17.63;;;;;;;-0.56;100.00;102673.72;4949637;28;20056;-57
2021/03/02 01:34:28;;;;;;;32.60;16.63;;;;;;;-0.38;100.00;102671.31;4948096;28;20050;-57
2021/03/02 01:36:55;;;;;;;36.55;16.73;;;;;;;-0.16;100.00;102671.84;4949695;28;20112;-56
2021/03/02 01:39:21;;;;;;;34.60;17.02;;;;;;;-0.20;99.46;102667.25;4948082;28;20051;-51
2021/03/02 01:41:55;;;;;;;31.77;15.88;;;;;;;-0.52;100.00;102657.31;4950683;28;20055;-56
2021/03/02 01:44:25;;;;;;;29.77;15.45;;;;;;;-0.14;100.00;102662.81;4952438;28;20094;-55
2021/03/02 01:46:51;;;;;;;31.58;16.67;;;;;;;-0.26;99.32;102657.47;4954022;28;20061;-49
2021/03/02 01:49:19;;;;;;;29.38;14.52;;;;;;;-0.45;100.00;102653.81;4952194;28;20103;-56
2021/03/02 01:51:47;;;;;;;36.70;16.20;;;;;;;-0.52;100.00;102655.69;4953991;28;20152;-57
2021/03/02 01:54:15;;;;;;;31.77;16.98;;;;;;;-0.96;100.00;102651.16;4952200;28;20090;-54
2021/03/02 01:56:42;;;;;;;35.03;16.90;;;;;;;-1.21;100.00;102651.84;4953338;28;20133;-58
2021/03/02 01:59:10;;;;;;;38.45;15.38;;;;;;;-1.29;100.00;102656.09;4952384;28;20043;-59
2021/03/02 02:01:37;;;;;;;31.02;15.95;;;;;;;-1.27;100.00;102653.75;4952647;28;20055;-59
2021/03/02 02:04:17;;;;;;;39.22;17.77;;;;;;;-1.24;100.00;102659.09;4952584;28;20138;-58
2021/03/02 02:07:05;;;;;;;35.60;16.70;;;;;;;-1.16;100.00;102659.13;4953068;28;20826;-58
2021/03/02 02:09:46;;;;;;;39.58;17.63;;;;;;;-1.50;100.00;102657.25;4952051;28;20141;-58
2021/03/02 02:12:22;;;;;;;36.13;16.75;;;;;;;-1.30;100.00;102651.78;4955416;28;20074;-59
2021/03/02 02:15:08;;;;;;;38.63;17.33;;;;;;;-1.43;100.00;102646.19;4953081;28;20381;-59
2021/03/02 02:18:13;;;;;;;27.95;13.13;;;;;;;-1.57;100.00;102652.31;4951842;28;20365;-59
2021/03/02 02:20:58;;;;;;;36.97;16.45;;;;;;;-1.32;100.00;102648.22;4952401;28;20051;-56
2021/03/02 02:23:35;;;;;;;32.20;16.50;;;;;;;-1.50;100.00;102656.34;4955550;28;20083;-58
2021/03/02 02:26:39;;;;;;;38.50;17.73;;;;;;;-1.64;100.00;102652.38;4953911;28;20050;-56
2021/03/02 02:29:07;;;;;;;35.80;16.40;;;;;;;-1.56;100.00;102651.59;4954055;28;20051;-56
2021/03/02 02:31:34;;;;;;;39.15;18.27;;;;;;;-1.69;100.00;102653.53;4962760;28;20046;-55
2021/03/02 02:34:02;;;;;;;40.50;18.65;;;;;;;-1.79;100.00;102654.16;4952617;28;20117;-56
2021/03/02 02:36:31;;;;;;;39.60;17.55;;;;;;;-1.75;100.00;102652.88;4951269;28;20148;-56
2021/03/02 02:39:00;;;;;;;38.00;18.90;;;;;;;-1.04;100.00;102654.50;4951314;28;20042;-56
2021/03/02 02:41:29;;;;;;;31.60;16.52;;;;;;;-0.99;100.00;102654.97;4951483;28;20461;-57
2021/03/02 02:44:04;;;;;;;25.95;12.93;;;;;;;-0.71;100.00;102649.53;4953712;28;20050;-58
2021/03/02 02:46:31;;;;;;;36.42;17.55;;;;;;;-1.09;100.00;102654.03;4951053;28;20055;-56
2021/03/02 02:48:59;;;;;;;37.78;17.77;;;;;;;-1.56;100.00;102652.47;4951224;28;20082;-59
2021/03/02 02:51:26;;;;;;;37.17;17.40;;;;;;;-1.52;100.00;102648.66;4951282;28;20066;-59
2021/03/02 02:53:53;;;;;;;37.50;16.88;;;;;;;-1.49;100.00;102656.50;4951706;28;20050;-58
2021/03/02 02:56:21;;;;;;;36.95;16.88;;;;;;;-1.30;100.00;102657.69;4950910;28;20051;-58
2021/03/02 02:59:09;;;;;;;36.70;16.35;;;;;;;-1.37;100.00;102654.41;4952357;28;20062;-56
2021/03/02 03:01:43;;;;;;;38.60;17.38;;;;;;;-1.74;100.00;102655.53;4951744;28;20419;-54
2021/03/02 03:04:18;;;;;;;40.00;17.35;;;;;;;-1.65;100.00;102656.53;4951263;28;20069;-59
2021/03/02 03:06:45;;;;;;;35.20;17.27;;;;;;;-1.84;100.00;102660.31;4952365;28;20054;-58
2021/03/02 03:09:13;;;;;;;32.70;16.67;;;;;;;-1.73;100.00;102663.97;4950509;28;20154;-58
2021/03/02 03:11:44;;;;;;;38.28;17.17;;;;;;;-1.56;100.00;102656.59;4952440;28;20090;-58
2021/03/02 03:14:14;;;;;;;32.85;16.40;;;;;;;-1.09;100.00;102655.66;4954307;28;20047;-53
2021/03/02 03:16:43;;;;;;;31.42;16.67;;;;;;;-1.11;100.00;102652.06;4951839;28;20137;-56
2021/03/02 03:19:24;;;;;;;33.22;16.58;;;;;;;-1.10;100.00;102652.25;4954269;28;20142;-56
2021/03/02 03:21:52;;;;;;;37.80;17.50;;;;;;;-1.13;100.00;102651.03;4952191;28;20055;-59
2021/03/02 03:24:23;;;;;;;35.55;16.58;;;;;;;-1.02;100.00;102655.53;4950518;28;20493;-56
2021/03/02 03:26:51;;;;;;;39.35;18.42;;;;;;;-1.23;100.00;102653.34;4952015;28;20062;-57
2021/03/02 03:29:20;;;;;;;34.03;16.08;;;;;;;-0.86;100.00;102658.03;4950547;28;20043;-57
2021/03/02 03:31:46;;;;;;;36.35;16.27;;;;;;;-0.71;100.00;102659.59;4952113;28;20050;-55
2021/03/02 03:34:15;;;;;;;36.13;17.48;;;;;;;-0.75;100.00;102656.63;4950252;28;20841;-58
2021/03/02 03:36:43;;;;;;;36.05;16.52;;;;;;;-0.77;99.50;102653.94;4951572;28;20058;-56
2021/03/02 03:39:09;;;;;;;31.60;15.55;;;;;;;-0.74;99.59;102654.25;4950779;28;20047;-55
2021/03/02 03:41:36;;;;;;;37.20;16.88;;;;;;;-0.95;99.75;102652.94;4951011;28;20095;-53
2021/03/02 03:44:03;;;;;;;36.55;15.50;;;;;;;-1.24;100.00;102656.59;4950916;28;20046;-58
2021/03/02 03:46:30;;;;;;;37.38;16.42;;;;;;;-1.36;100.00;102651.16;4949104;28;20051;-55
2021/03/02 03:48:56;;;;;;;33.08;16.30;;;;;;;-1.25;100.00;102647.25;4951146;28;20054;-57
2021/03/02 03:51:25;;;;;;;32.25;14.75;;;;;;;-1.06;100.00;102643.41;4949839;28;20066;-59
2021/03/02 03:53:52;;;;;;;33.88;15.77;;;;;;;-1.49;100.00;102648.97;4951757;28;20058;-58
2021/03/02 03:56:21;;;;;;;32.22;16.58;;;;;;;-1.77;100.00;102656.81;4949769;28;20054;-56
2021/03/02 03:58:49;;;;;;;29.10;14.95;;;;;;;-1.33;100.00;102654.00;4951586;28;20051;-56
2021/03/02 04:01:16;;;;;;;31.65;14.73;;;;;;;-1.38;100.00;102653.50;4949566;28;20047;-55
2021/03/02 04:03:45;;;;;;;34.72;16.27;;;;;;;-1.91;100.00;102656.25;4951264;28;20551;-55
2021/03/02 04:06:12;;;;;;;34.67;16.80;;;;;;;-1.89;100.00;102653.91;4952925;28;20051;-53
2021/03/02 04:08:39;;;;;;;32.17;16.35;;;;;;;-1.68;100.00;102648.66;4950783;28;20047;-58
2021/03/02 04:11:06;;;;;;;35.90;17.13;;;;;;;-1.70;100.00;102657.66;4950014;28;20054;-55
2021/03/02 04:13:33;;;;;;;38.28;17.17;;;;;;;-2.01;100.00;102656.00;4949631;28;20074;-58
2021/03/02 04:16:00;;;;;;;32.72;16.55;;;;;;;-2.14;100.00;102650.38;4950323;28;20053;-57
2021/03/02 04:18:27;;;;;;;37.08;18.13;;;;;;;-2.14;100.00;102641.22;4949503;28;20061;-58
2021/03/02 04:20:53;;;;;;;38.20;20.35;;;;;;;-2.02;100.00;102648.31;4951209;28;20051;-54
2021/03/02 04:23:20;;;;;;;43.03;21.90;;;;;;;-2.37;100.00;102651.28;4949598;28;20055;-57
2021/03/02 04:25:47;;;;;;;36.15;18.52;;;;;;;-2.40;100.00;102647.56;4951022;28;20062;-54
2021/03/02 04:28:14;;;;;;;34.42;18.63;;;;;;;-2.46;100.00;102651.91;4949179;28;20047;-58
2021/03/02 04:30:40;;;;;;;37.47;20.83;;;;;;;-2.56;100.00;102650.91;4951096;28;20047;-55
2021/03/02 04:33:07;;;;;;;36.85;21.20;;;;;;;-2.51;100.00;102643.88;4950177;28;20822;-55
2021/03/02 04:35:34;;;;;;;38.88;22.30;;;;;;;-2.57;100.00;102650.75;4950194;28;20559;-56
2021/03/02 04:38:02;;;;;;;43.60;24.08;;;;;;;-2.59;100.00;102649.66;4950471;28;20067;-58
2021/03/02 04:40:28;;;;;;;44.22;22.83;;;;;;;-2.54;100.00;102652.66;4949768;28;20065;-58
2021/03/02 04:42:55;;;;;;;42.15;19.67;;;;;;;-2.37;100.00;102646.25;4950911;28;20054;-58
2021/03/02 04:45:21;;;;;;;31.33;16.63;;;;;;;-2.26;100.00;102641.53;4949590;28;20123;-56
2021/03/02 04:47:48;;;;;;;29.23;14.68;;;;;;;-2.28;100.00;102648.00;4951067;28;20054;-56
2021/03/02 04:50:15;;;;;;;33.00;15.77;;;;;;;-2.37;100.00;102638.75;4949417;28;20055;-57
2021/03/02 04:52:42;;;;;;;26.63;15.23;;;;;;;-2.08;100.00;102640.97;4950937;28;20055;-55
2021/03/02 04:55:10;;;;;;;32.50;16.33;;;;;;;-2.48;100.00;102650.84;4949632;28;20532;-55
2021/03/02 04:57:37;;;;;;;30.27;16.52;;;;;;;-2.49;100.00;102646.56;4949856;28;20606;-58
2021/03/02 05:00:06;;;;;;;28.38;15.43;;;;;;;-2.24;100.00;102642.59;4950038;28;20054;-55
2021/03/02 05:02:32;;;;;;;27.65;14.20;;;;;;;-2.25;100.00;102649.22;4951511;28;20094;-58
2021/03/02 05:04:59;;;;;;;26.00;13.60;;;;;;;-2.29;100.00;102636.19;4964635;28;20047;-57
2021/03/02 05:07:26;;;;;;;24.73;14.18;;;;;;;-2.27;100.00;102647.25;4949885;28;20054;-58
2021/03/02 05:09:52;;;;;;;35.42;15.50;;;;;;;-2.41;100.00;102643.25;4951023;28;20070;-58
2021/03/02 05:12:19;;;;;;;41.15;17.90;;;;;;;-2.21;100.00;102650.47;4950013;28;20043;-58
2021/03/02 05:14:45;;;;;;;44.92;19.30;;;;;;;-2.54;100.00;102652.66;4951220;28;20059;-59
2021/03/02 05:17:12;;;;;;;37.92;19.85;;;;;;;-2.30;100.00;102657.88;4949239;28;20681;-56
2021/03/02 05:19:38;;;;;;;35.90;18.35;;;;;;;-2.52;100.00;102656.25;4951064;28;20047;-54
2021/03/02 05:22:05;;;;;;;36.22;18.77;;;;;;;-2.41;100.00;102651.66;4950305;28;20055;-55
2021/03/02 05:24:32;;;;;;;38.53;20.92;;;;;;;-2.77;100.00;102657.66;4949697;28;20055;-54
2021/03/02 05:26:59;;;;;;;36.88;19.38;;;;;;;-2.63;100.00;102653.47;4954480;28;20407;-58
2021/03/02 05:29:25;;;;;;;33.63;18.52;;;;;;;-2.76;100.00;102656.97;4953667;28;20071;-58
2021/03/02 05:31:52;;;;;;;32.33;18.27;;;;;;;-2.70;100.00;102657.63;4951581;28;20050;-55
2021/03/02 05:34:18;;;;;;;39.17;17.10;;;;;;;-2.99;100.00;102656.94;4965286;28;20081;-58
2021/03/02 05:36:45;;;;;;;29.23;15.20;;;;;;;-2.40;100.00;102655.09;4955208;28;20110;-56
2021/03/02 05:39:11;;;;;;;30.58;13.45;;;;;;;-2.24;100.00;102658.53;4952398;28;20098;-54
2021/03/02 05:41:41;;;;;;;48.75;15.82;;;;;;;-2.54;100.00;102655.19;4949741;28;20504;-59
2021/03/02 05:44:11;;;;;;;44.90;15.82;;;;;;;-2.61;100.00;102659.53;4948226;28;20054;-58
2021/03/02 05:46:40;;;;;;;26.88;14.90;;;;;;;-2.47;100.00;102660.16;4949416;28;20167;-58
2021/03/02 05:49:12;;;;;;;25.77;14.07;;;;;;;-2.39;100.00;102652.75;4947133;28;20039;-58
2021/03/02 05:51:40;;;;;;;25.73;15.55;;;;;;;-2.23;100.00;102649.38;4947192;28;20049;-53
2021/03/02 05:54:08;;;;;;;33.30;18.85;;;;;;;-2.70;100.00;102651.00;4947364;28;20047;-55
2021/03/02 05:56:41;;;;;;;29.42;17.23;;;;;;;-2.64;100.00;102651.66;4947661;28;20055;-56
2021/03/02 05:59:11;;;;;;;25.85;15.05;;;;;;;-2.58;100.00;102659.88;4947756;28;20057;-56
2021/03/02 06:01:37;;;;;;;26.33;13.75;;;;;;;-2.76;100.00;102662.88;4948327;28;20070;-59
2021/03/02 06:04:04;;;;;;;35.20;16.77;;;;;;;-3.00;100.00;102668.56;4947832;28;20102;-56
2021/03/02 06:06:31;;;;;;;31.85;15.63;;;;;;;-2.77;100.00;102666.09;4948170;28;20062;-56
2021/03/02 06:08:58;;;;;;;43.78;16.77;;;;;;;-2.61;100.00;102667.06;4948899;28;20047;-56
2021/03/02 06:11:31;;;;;;;37.72;16.52;;;;;;;-2.26;100.00;102666.63;4949061;28;20096;-59
2021/03/02 06:14:19;;;;;;;50.53;15.75;;;;;;;-2.11;100.00;102671.69;4948977;28;20145;-56
2021/03/02 06:16:56;;;;;;;37.20;15.50;;;;;;;-2.48;100.00;102680.94;4950053;28;20479;-58
2021/03/02 06:19:43;;;;;;;89.63;17.27;;;;;;;-2.69;100.00;102687.88;4948500;28;20059;-56
2021/03/02 06:22:31;;;;;;;30.20;14.40;;;;;;;-2.20;100.00;102680.72;4952613;28;20047;-57
2021/03/02 06:24:58;;;;;;;40.83;15.75;;;;;;;-2.07;100.00;102686.34;4949705;28;20488;-57
2021/03/02 06:27:25;;;;;;;30.15;15.15;;;;;;;-1.81;99.97;102673.19;4948508;28;20043;-52
2021/03/02 06:30:11;;;;;;;27.67;14.73;;;;;;;-2.29;99.37;102673.81;4968714;28;20065;-56
2021/03/02 06:32:40;;;;;;;31.92;15.98;;;;;;;-2.76;100.00;102685.44;4972307;28;20388;-54
2021/03/02 06:35:10;;;;;;;27.48;14.18;;;;;;;-1.81;100.00;102689.13;4968559;28;20818;-54
2021/03/02 06:37:41;;;;;;;27.77;15.68;;;;;;;-1.55;99.20;102686.91;4960296;28;20054;-52
2021/03/02 06:40:10;;;;;;;28.30;14.38;;;;;;;-1.85;99.04;102687.06;4953402;28;20046;-53
2021/03/02 06:42:38;;;;;;;23.58;13.77;;;;;;;-2.09;99.93;102684.38;4963919;28;20042;-50
2021/03/02 06:45:08;;;;;;;26.77;14.02;;;;;;;-1.67;98.43;102679.69;4955663;28;20512;-49
2021/03/02 06:47:40;;;;;;;27.42;13.63;;;;;;;-1.59;99.48;102682.28;4959026;28;20053;-52
2021/03/02 06:50:13;;;;;;;25.60;13.55;;;;;;;-1.56;98.41;102692.66;4952081;28;20075;-52
2021/03/02 06:52:42;;;;;;;26.95;14.10;;;;;;;-1.48;98.04;102685.91;4953577;28;20413;-55
2021/03/02 06:55:14;;;;;;;24.52;12.73;;;;;;;-1.20;96.29;102688.81;4952124;28;20043;-51
2021/03/02 06:57:42;;;;;;;25.98;12.63;;;;;;;-1.09;95.29;102683.31;4952498;28;20055;-49
2021/03/02 07:00:09;;;;;;;19.23;10.45;;;;;;;-1.12;95.12;102693.91;4951874;28;20051;-53
2021/03/02 07:02:38;;;;;;;20.83;10.68;;;;;;;-1.48;96.98;102702.63;4958665;28;20055;-56
2021/03/02 07:05:15;;;;;;;19.90;11.77;;;;;;;-1.35;95.95;102700.69;4952072;28;20523;-52
2021/03/02 07:07:44;;;;;;;21.45;11.32;;;;;;;-1.91;98.48;102700.53;4953795;28;20428;-54
2021/03/02 07:10:13;;;;;;;22.23;11.82;;;;;;;-1.09;97.40;102704.31;4963482;28;20057;-56
2021/03/02 07:12:41;;;;;;;21.17;11.43;;;;;;;-0.92;95.37;102701.06;4962963;28;20054;-51
2021/03/02 07:15:10;;;;;;;18.98;11.13;;;;;;;-1.18;95.91;102695.81;4951872;28;20051;-48
2021/03/02 07:17:44;;;;;;;17.95;10.68;;;;;;;-0.78;94.95;102703.38;4963111;28;20046;-54
2021/03/02 07:20:12;;;;;;;;;;;;;;;-1.39;98.01;102698.56;4978836;28;20094;-51
2021/03/02 07:22:40;;;;;;;17.73;10.60;;;;;;;-1.10;96.28;102696.63;4978838;28;20409;-55
2021/03/02 07:25:10;;;;;;;18.33;10.60;;;;;;;-0.90;96.29;102692.03;4980191;28;20189;-51
2021/03/02 07:27:42;;;;;;;19.05;11.02;;;;;;;-1.23;96.72;102686.00;4978415;28;20093;-53
2021/03/02 07:30:11;;;;;;;17.45;10.05;;;;;;;-1.15;97.78;102683.56;4980297;28;20116;-52
2021/03/02 07:32:41;;;;;;;16.52;10.63;;;;;;;-1.16;98.75;102694.31;4978663;28;20514;-49
2021/03/02 07:35:14;;;;;;;17.75;10.45;;;;;;;-0.89;98.48;102692.91;4979912;28;20050;-49
2021/03/02 07:37:41;;;;;;;18.90;11.18;;;;;;;-0.90;99.13;102696.16;4978103;28;20067;-54
2021/03/02 07:40:10;;;;;;;17.70;10.55;;;;;;;-0.61;98.25;102692.50;4979139;28;20052;-56
2021/03/02 07:42:37;;;;;;;16.70;10.35;;;;;;;-0.91;99.09;102687.75;4978585;28;20049;-50
2021/03/02 07:45:09;;;;;;;19.42;10.32;;;;;;;-0.63;96.02;102688.97;4979565;28;21141;-48
2021/03/02 07:47:56;;;;;;;33.50;10.98;;;;;;;-1.08;98.36;102685.97;4977619;28;20082;-50
2021/03/02 07:50:32;;;;;;;16.95;11.02;;;;;;;-0.68;98.50;102682.56;4980138;28;20043;-52
2021/03/02 07:53:17;;;;;;;18.27;10.23;;;;;;;0.00;95.36;102687.78;4975673;28;20848;-49
2021/03/02 07:55:46;;;;;;;16.77;10.02;;;;;;;0.30;93.11;102709.19;4977302;28;20046;-51
2021/03/02 07:58:16;;;;;;;15.32;9.52;;;;;;;-0.05;95.22;102702.44;4976192;28;20055;-53
2021/03/02 08:00:48;;;;;;;17.27;10.80;;;;;;;0.88;92.39;102704.81;4977517;28;20054;-53
2021/03/02 08:03:27;;;;;;;19.38;12.32;;;;;;;0.84;91.60;102712.84;4977852;28;20081;-46
2021/03/02 08:06:20;;;;;;;25.48;11.35;;;;;;;0.73;93.11;102710.13;4975996;28;20558;-50
2021/03/02 08:08:48;;;;;;;14.85;9.73;;;;;;;0.85;92.27;102710.47;4977087;28;20094;-53
2021/03/02 08:11:29;;;;;;;17.60;10.00;;;;;;;1.36;91.09;102712.78;4979276;28;20050;-52
2021/03/02 08:13:58;;;;;;;14.20;9.07;;;;;;;2.29;86.69;102724.03;4976025;28;20042;-54
2021/03/02 08:16:58;;;;;;;13.88;8.93;;;;;;;2.24;85.38;102715.16;4976457;28;20051;-54
2021/03/02 08:19:37;;;;;;;17.55;10.05;;;;;;;1.41;88.59;102712.47;4977969;28;20046;-53
2021/03/02 08:22:20;;;;;;;17.13;11.05;;;;;;;0.95;91.76;102709.72;4977661;28;20130;-54
2021/03/02 08:25:01;;;;;;;17.50;10.35;;;;;;;1.52;90.18;102719.41;4971486;28;20038;-49
2021/03/02 08:27:49;;;;;;;17.60;10.65;;;;;;;2.27;88.22;102718.84;4976645;28;20057;-51
2021/03/02 08:30:21;;;;;;;13.68;9.25;;;;;;;1.90;87.90;102712.06;4975093;28;20042;-52
2021/03/02 08:32:47;;;;;;;17.95;10.55;;;;;;;1.74;89.22;102707.19;4976648;28;20046;-49
2021/03/02 08:35:23;;;;;;;15.48;10.35;;;;;;;2.21;88.57;102719.91;4979055;28;20125;-50
2021/03/02 08:37:52;;;;;;;15.68;10.27;;;;;;;2.53;87.13;102717.78;4976216;28;20577;-53
2021/03/02 08:40:39;;;;;;;16.60;10.90;;;;;;;2.85;85.13;102720.69;4978397;28;20046;-52
2021/03/02 08:43:18;;;;;;;17.70;10.35;;;;;;;3.18;83.50;102722.78;4976833;28;20073;-54
2021/03/02 08:45:52;;;;;;;16.85;10.43;;;;;;;2.89;83.63;102719.31;4974222;28;20054;-55
2021/03/02 08:48:39;;;;;;;19.10;11.30;;;;;;;2.13;87.84;102716.69;4969597;28;20050;-53
2021/03/02 08:51:10;;;;;;;15.88;11.07;;;;;;;1.85;89.54;102712.34;4977315;28;20062;-55
2021/03/02 08:53:40;;;;;;;16.75;10.38;;;;;;;1.32;92.93;102715.78;4974457;28;20423;-49
2021/03/02 08:56:17;;;;;;;20.95;12.20;;;;;;;0.92;94.94;102710.28;4972839;28;20077;-54
2021/03/02 08:58:46;;;;;;;19.88;11.35;;;;;;;2.46;91.34;102710.41;4976082;28;20051;-49
2021/03/02 09:01:37;;;;;;;17.63;10.82;;;;;;;3.29;85.08;102703.50;4976478;28;20046;-50
2021/03/02 09:04:19;;;;;;;22.67;12.07;;;;;;;2.31;87.67;102704.84;4977015;28;20051;-52
2021/03/02 09:06:47;;;;;;;22.55;12.98;;;;;;;1.87;92.17;102710.88;4975077;28;20050;-55
2021/03/02 09:09:24;;;;;;;24.15;13.30;;;;;;;1.77;93.66;102712.53;4978498;28;20043;-56
2021/03/02 09:11:53;;;;;;;20.63;11.73;;;;;;;2.60;90.26;102724.31;4974724;28;20058;-54
2021/03/02 09:14:30;;;;;;;19.70;12.70;;;;;;;1.78;92.55;102711.78;4978197;28;20057;-55
2021/03/02 09:17:02;;;;;;;23.90;13.07;;;;;;;1.45;95.10;102717.06;4974452;28;20054;-52
2021/03/02 09:19:33;;;;;;;28.02;15.63;;;;;;;1.61;95.46;102721.94;4974904;28;20050;-54
2021/03/02 09:22:09;;;;;;;25.55;15.18;;;;;;;1.65;93.14;102724.00;4975202;28;20390;-50
2021/03/02 09:25:01;;;;;;;26.67;14.85;;;;;;;2.05;92.23;102725.22;4975763;28;20042;-53
2021/03/02 09:27:33;;;;;;;27.17;15.38;;;;;;;2.11;92.99;102735.88;4976982;28;20483;-51
2021/03/02 09:30:00;;;;;;;28.55;15.18;;;;;;;2.35;92.36;102731.28;4974787;28;20066;-56
2021/03/02 09:32:31;;;;;;;30.55;15.88;;;;;;;2.73;90.81;102737.31;4974285;28;20157;-54
2021/03/02 09:35:03;;;;;;;23.40;14.38;;;;;;;3.05;90.34;102740.16;4972004;28;20051;-54
2021/03/02 09:37:30;;;;;;;25.25;15.27;;;;;;;3.22;87.13;102740.03;4976217;28;20050;-56
2021/03/02 09:40:04;;;;;;;27.80;16.58;;;;;;;3.35;88.87;102739.47;4973649;28;20135;-56
2021/03/02 09:42:33;;;;;;;27.73;16.20;;;;;;;2.83;91.38;102733.97;4973642;28;20054;-54
2021/03/02 09:45:12;;;;;;;28.38;17.15;;;;;;;3.55;88.60;102738.66;4973466;28;20058;-52
2021/03/02 09:47:41;;;;;;;27.55;15.10;;;;;;;4.23;84.96;102737.72;4976575;28;20499;-52
2021/03/02 09:50:14;;;;;;;27.73;17.40;;;;;;;4.03;85.00;102730.97;4972908;28;20061;-55
2021/03/02 09:52:49;;;;;;;31.85;17.15;;;;;;;3.81;85.34;102731.66;4974420;28;20054;-51
2021/03/02 09:55:19;;;;;;;30.92;18.70;;;;;;;4.83;82.56;102729.22;4969061;28;20038;-57
2021/03/02 09:58:13;;;;;;;26.58;16.10;;;;;;;5.69;80.53;102725.91;4975267;28;20074;-56
2021/03/02 10:00:52;;;;;;;29.27;17.02;;;;;;;6.88;73.30;102726.47;4976450;28;20125;-56
2021/03/02 10:03:26;;;;;;;27.08;15.18;;;;;;;6.63;73.99;102723.78;4976321;28;20762;-55
2021/03/02 10:05:58;;;;;;;28.42;16.80;;;;;;;6.92;72.90;102720.81;4979239;28;21089;-56
2021/03/02 10:08:29;;;;;;;26.98;16.45;;;;;;;6.63;73.48;102731.41;4978838;28;20055;-55
2021/03/02 10:11:17;;;;;;;26.65;15.77;;;;;;;6.49;74.48;102726.97;4978294;28;20051;-51
2021/03/02 10:14:06;;;;;;;26.17;15.40;;;;;;;9.58;64.65;102731.28;4978939;28;20054;-50
2021/03/02 10:16:35;;;;;;;22.83;14.82;;;;;;;11.91;56.60;102739.66;4978501;28;20048;-54
2021/03/02 10:19:32;;;;;;;22.10;15.40;;;;;;;13.88;50.75;102741.69;4976842;28;20206;-54
2021/03/02 10:21:59;;;;;;;22.73;15.10;;;;;;;13.95;49.42;102738.56;4979499;28;20805;-53
2021/03/02 10:24:29;;;;;;;22.40;16.20;;;;;;;14.90;47.68;102745.25;4980645;28;20070;-53
2021/03/02 10:26:57;;;;;;;21.48;15.77;;;;;;;14.82;46.85;102745.75;4974852;28;20051;-50
2021/03/02 10:29:26;;;;;;;22.63;16.45;;;;;;;15.23;44.78;102737.97;4976781;28;20050;-50
2021/03/02 10:31:55;;;;;;;24.02;17.23;;;;;;;19.96;34.90;102746.09;4978693;28;20061;-53
2021/03/02 10:34:23;;;;;;;28.73;19.15;;;;;;;13.59;47.10;102730.06;4975557;28;20470;-53
2021/03/02 10:36:54;;;;;;;26.48;18.98;;;;;;;15.20;43.57;102730.09;4977773;28;20046;-51
2021/03/02 10:39:21;;;;;;;24.92;18.40;;;;;;;17.24;40.23;102733.06;4979533;28;20050;-56
2021/03/02 10:41:47;;;;;;;26.23;19.40;;;;;;;18.01;38.78;102737.94;4979438;28;20641;-57
2021/03/02 10:44:16;;;;;;;25.42;18.58;;;;;;;18.09;38.36;102739.03;4981630;28;20121;-52
2021/03/02 10:46:43;;;;;;;27.45;20.60;;;;;;;21.15;32.43;102744.72;4979365;28;20054;-56
2021/03/02 10:49:11;;;;;;;27.98;20.30;;;;;;;16.57;40.01;102725.66;4980969;28;20054;-50
2021/03/02 10:51:38;;;;;;;27.80;19.13;;;;;;;20.79;32.72;102736.34;4976933;28;20139;-57
2021/03/02 10:54:05;;;;;;;26.23;19.50;;;;;;;20.21;33.79;102737.94;4976620;28;20050;-57
2021/03/02 10:56:32;;;;;;;27.83;21.00;;;;;;;19.28;35.38;102742.06;4974995;28;20054;-52
2021/03/02 10:58:59;;;;;;;26.38;19.73;;;;;;;20.92;32.04;102736.56;4977342;28;20474;-49
2021/03/02 11:01:26;;;;;;;26.73;20.73;;;;;;;20.92;32.74;102729.63;4976936;28;20132;-56
2021/03/02 11:03:53;;;;;;;25.42;20.35;;;;;;;20.37;34.03;102740.81;4977579;28;20051;-53
2021/03/02 11:06:24;;;;;;;26.58;20.65;;;;;;;21.01;31.65;102732.38;4978145;28;20495;-55
2021/03/02 11:09:02;;;;;;;34.63;23.27;;;;;;;19.86;34.67;102732.03;4978797;28;20057;-55
2021/03/02 11:11:29;;;;;;;31.02;22.27;;;;;;;22.42;30.41;102738.50;4979739;28;20050;-56
2021/03/02 11:13:55;;;;;;;30.98;22.98;;;;;;;20.61;32.88;102728.25;4978496;28;20558;-53
2021/03/02 11:16:22;;;;;;;33.67;23.10;;;;;;;23.22;29.84;102733.06;4979081;28;20117;-52
2021/03/02 11:18:52;;;;;;;32.15;23.20;;;;;;;22.04;30.43;102723.28;4977875;28;20518;-55
2021/03/02 11:21:19;;;;;;;33.55;25.75;;;;;;;21.07;31.85;102722.03;4979552;28;20101;-54
2021/03/02 11:23:46;;;;;;;33.58;23.50;;;;;;;22.36;29.49;102721.03;4978083;28;20937;-55